South Sioux City, Nebraska
Current Conditions -  °F | °C
As of 7:23 AM on Sunday 23 Nov 2014 (Local Time) from KSUX Reporting Station
Haze Haze  
Wind Chill: 51°   Ceiling: 1500
Heat Index: 51°   Visibility: 6mi
Dew Point: 49°   Wind: 0mph
Humidity: 92%   Direction: NA
Pressure: 29.47"   Gusts: NA
Location:  42.47°N, 96.41°W
Report Text: KSUX 231323Z 00000KT 6SM BR SCT009 BKN015 OVC026 11/09 A2947 RMK AO2 T01060094
Loading
Personal Weather Stations






























Interactive Weather Map New forecast layout! Learn more

10-Day Weather Forecast

Advertisements
Track Severe Weather on mobile